Time;durP1;ratioP1;P1;durP2;ratioP2;P2;SDS_P1;SDS_P2;PMS_P1;PMS_P2;Temp;Humidity;BMP_temperature;BMP_pressure;BME280_temperature;BME280_humidity;BME280_pressure;Samples;Min_cycle;Max_cycle;Signal;HPM_P1;HPM_P2
2020/12/07 00:01:23;;;;;;;10.55;7.80;;;10.30;71.50;;;;;;5045314;28;20025;-75
2020/12/07 00:03:49;;;;;;;10.05;7.45;;;10.20;71.60;;;;;;5045640;28;20029;-76
2020/12/07 00:06:18;;;;;;;11.07;7.90;;;10.20;71.50;;;;;;5043530;28;20384;-76
2020/12/07 00:08:45;;;;;;;9.18;7.32;;;10.20;71.50;;;;;;5037851;28;20044;-76
2020/12/07 00:11:11;;;;;;;10.82;8.23;;;10.30;71.20;;;;;;5049299;28;20083;-76
2020/12/07 00:13:37;;;;;;;12.02;8.02;;;10.20;71.30;;;;;;5038273;28;20021;-76
2020/12/07 00:16:06;;;;;;;11.38;8.13;;;10.30;71.20;;;;;;5043414;28;20028;-76
2020/12/07 00:18:32;;;;;;;12.23;8.20;;;10.30;71.00;;;;;;5044935;28;20063;-76
2020/12/07 00:20:58;;;;;;;14.00;7.63;;;10.40;70.70;;;;;;5035788;28;20064;-76
2020/12/07 00:23:23;;;;;;;12.18;8.00;;;10.30;71.00;;;;;;5036167;28;20379;-76
2020/12/07 00:25:49;;;;;;;15.23;8.55;;;10.20;71.40;;;;;;5052465;28;20029;-76
2020/12/07 00:28:15;;;;;;;13.35;8.68;;;10.10;71.60;;;;;;5041668;28;20040;-76
2020/12/07 00:30:40;;;;;;;13.60;8.57;;;10.10;71.90;;;;;;5046720;28;20108;-76
2020/12/07 00:33:06;;;;;;;12.23;8.98;;;10.20;71.80;;;;;;5018020;28;20040;-76
2020/12/07 00:35:32;;;;;;;13.27;8.23;;;10.20;71.70;;;;;;5047530;28;20025;-76
2020/12/07 00:37:57;;;;;;;16.17;8.70;;;10.30;71.60;;;;;;5040210;28;20024;-77
2020/12/07 00:40:23;;;;;;;12.13;8.48;;;10.30;71.40;;;;;;5032316;28;20136;-76
2020/12/07 00:42:49;;;;;;;12.55;8.50;;;10.30;71.30;;;;;;5029872;28;20028;-77
2020/12/07 00:45:14;;;;;;;11.45;8.55;;;10.30;71.10;;;;;;5035681;28;20491;-77
2020/12/07 00:47:40;;;;;;;14.60;9.60;;;10.30;71.20;;;;;;5046218;28;20029;-76
2020/12/07 00:50:05;;;;;;;13.35;8.73;;;10.30;71.30;;;;;;5041648;28;20028;-76
2020/12/07 00:52:31;;;;;;;11.25;8.50;;;10.30;71.40;;;;;;5039033;28;20025;-76
2020/12/07 00:54:57;;;;;;;10.88;8.60;;;10.30;71.50;;;;;;5048682;28;20032;-76
2020/12/07 00:57:22;;;;;;;14.23;9.35;;;10.30;71.70;;;;;;5018060;28;20373;-75
2020/12/07 00:59:48;;;;;;;12.27;9.05;;;10.20;71.80;;;;;;5044994;28;20498;-76
2020/12/07 01:02:13;;;;;;;14.23;8.88;;;10.30;71.30;;;;;;5032129;28;20030;-76
2020/12/07 01:04:39;;;;;;;15.13;9.55;;;10.40;71.30;;;;;;5045943;28;20033;-76
2020/12/07 01:07:05;;;;;;;11.35;7.95;;;10.40;71.40;;;;;;5017526;28;20037;-76
2020/12/07 01:09:30;;;;;;;14.80;9.50;;;10.30;71.70;;;;;;5047275;28;20029;-76
2020/12/07 01:12:01;;;;;;;13.43;9.40;;;10.30;71.80;;;;;;5040295;28;20025;-76
2020/12/07 01:14:27;;;;;;;13.38;8.73;;;10.30;71.70;;;;;;5039380;28;20017;-76
2020/12/07 01:16:53;;;;;;;12.98;8.52;;;10.30;71.70;;;;;;5047871;28;20115;-76
2020/12/07 01:19:21;;;;;;;12.45;8.30;;;10.30;71.60;;;;;;5045378;22;20735;-75
2020/12/07 01:21:47;;;;;;;20.17;10.02;;;10.30;71.70;;;;;;5062178;28;20071;-76
2020/12/07 01:24:13;;;;;;;13.38;9.18;;;10.20;71.90;;;;;;5062379;28;20048;-76
2020/12/07 01:26:39;;;;;;;12.57;9.15;;;10.20;72.10;;;;;;5057467;28;20086;-76
2020/12/07 01:29:06;;;;;;;13.65;9.15;;;10.20;72.20;;;;;;5052596;28;20024;-76
2020/12/07 01:31:32;;;;;;;13.02;8.60;;;10.10;72.30;;;;;;5060660;28;20025;-76
2020/12/07 01:33:57;;;;;;;12.80;9.00;;;10.20;72.20;;;;;;5067458;28;20013;-75
2020/12/07 01:36:23;;;;;;;11.68;8.68;;;10.10;72.40;;;;;;5067428;28;20021;-77
2020/12/07 01:38:49;;;;;;;10.73;8.15;;;10.10;72.20;;;;;;5045652;28;20049;-76
2020/12/07 01:41:15;;;;;;;11.88;8.70;;;10.20;71.90;;;;;;5052126;28;20458;-77
2020/12/07 01:43:41;;;;;;;12.65;9.23;;;10.20;71.90;;;;;;5041689;28;20025;-77
2020/12/07 01:46:07;;;;;;;12.18;8.30;;;10.10;72.10;;;;;;5045824;28;20508;-77
2020/12/07 01:48:33;;;;;;;11.23;8.63;;;10.30;71.70;;;;;;5048521;28;20040;-77
2020/12/07 01:51:00;;;;;;;12.48;8.95;;;10.30;71.50;;;;;;5020975;28;20032;-77
2020/12/07 01:53:26;;;;;;;15.32;8.82;;;10.30;71.30;;;;;;5051394;28;20025;-77
2020/12/07 01:55:53;;;;;;;12.18;9.07;;;10.30;71.30;;;;;;5043032;28;20025;-77
2020/12/07 01:58:19;;;;;;;20.52;9.00;;;10.20;71.50;;;;;;5044052;28;20049;-76
2020/12/07 02:00:45;;;;;;;14.88;9.18;;;10.20;71.50;;;;;;5026385;28;20021;-77
2020/12/07 02:03:11;;;;;;;10.57;7.95;;;10.30;71.20;;;;;;5051711;28;20025;-77
2020/12/07 02:05:40;;;;;;;15.02;9.23;;;10.30;71.30;;;;;;5040851;28;20048;-77
2020/12/07 02:08:14;;;;;;;12.00;9.15;;;10.30;71.20;;;;;;5045497;28;20034;-77
2020/12/07 02:10:41;;;;;;;11.88;8.73;;;10.40;71.00;;;;;;5031438;28;20498;-77
2020/12/07 02:13:07;;;;;;;10.60;8.10;;;10.40;71.00;;;;;;5038430;28;20061;-77
2020/12/07 02:15:33;;;;;;;11.77;8.73;;;10.40;71.10;;;;;;5050070;28;20455;-77
2020/12/07 02:18:00;;;;;;;14.40;8.93;;;10.30;71.10;;;;;;5043419;28;20029;-77
2020/12/07 02:20:26;;;;;;;13.90;8.43;;;10.40;70.90;;;;;;5042125;28;20504;-78
2020/12/07 02:22:52;;;;;;;13.13;8.57;;;10.40;70.90;;;;;;5034867;28;20030;-78
2020/12/07 02:25:21;;;;;;;16.20;9.23;;;10.40;71.00;;;;;;5051267;28;20025;-78
2020/12/07 02:27:48;;;;;;;12.02;8.43;;;10.30;71.00;;;;;;5041655;28;20025;-78
2020/12/07 02:30:15;;;;;;;13.40;9.77;;;10.40;71.00;;;;;;5044154;28;20026;-78
2020/12/07 02:32:45;;;;;;;10.27;7.72;;;10.30;71.10;;;;;;5048889;28;20101;-78
2020/12/07 02:35:12;;;;;;;12.82;7.80;;;10.30;71.40;;;;;;5020288;28;20063;-76
2020/12/07 02:37:39;;;;;;;13.27;9.27;;;10.10;71.70;;;;;;5048973;28;20021;-77
2020/12/07 02:40:06;;;;;;;12.70;9.13;;;10.10;72.00;;;;;;5049080;28;20495;-77
2020/12/07 02:42:37;;;;;;;17.08;9.57;;;10.10;72.00;;;;;;5041314;28;20056;-77
2020/12/07 02:45:08;;;;;;;13.88;9.10;;;10.00;72.30;;;;;;5051176;28;20356;-76
2020/12/07 02:47:34;;;;;;;11.32;8.55;;;10.00;72.40;;;;;;5021933;28;20036;-76
2020/12/07 02:49:59;;;;;;;11.30;8.48;;;10.00;72.30;;;;;;5045844;28;20018;-76
2020/12/07 02:52:27;;;;;;;17.38;9.30;;;10.10;71.80;;;;;;5046406;28;20467;-76
2020/12/07 02:55:06;;;;;;;10.25;8.02;;;10.10;71.80;;;;;;5038334;28;20030;-76
2020/12/07 02:57:32;;;;;;;13.55;8.13;;;10.10;72.00;;;;;;5021267;28;20483;-76
2020/12/07 02:59:58;;;;;;;13.77;8.73;;;10.10;71.80;;;;;;5054357;28;20025;-76
2020/12/07 03:02:24;;;;;;;13.75;9.35;;;10.10;71.80;;;;;;5046769;28;20025;-76
2020/12/07 03:04:50;;;;;;;14.35;9.23;;;10.10;71.80;;;;;;5038636;28;20030;-76
2020/12/07 03:07:15;;;;;;;13.32;8.63;;;10.10;71.70;;;;;;5050428;28;20033;-77
2020/12/07 03:09:41;;;;;;;14.02;9.55;;;10.20;71.60;;;;;;5022397;28;20039;-77
2020/12/07 03:12:07;;;;;;;12.82;8.90;;;10.20;71.80;;;;;;5044207;28;20136;-76
2020/12/07 03:14:34;;;;;;;14.63;9.45;;;10.20;71.50;;;;;;5047049;28;20043;-75
2020/12/07 03:17:00;;;;;;;12.30;8.43;;;10.30;71.30;;;;;;5019584;28;20022;-77
2020/12/07 03:19:26;;;;;;;17.73;9.02;;;10.30;71.30;;;;;;5049687;28;20037;-76
2020/12/07 03:21:51;;;;;;;13.95;9.52;;;10.30;71.20;;;;;;5033845;28;20044;-77
2020/12/07 03:24:17;;;;;;;12.77;9.32;;;10.30;71.10;;;;;;5044921;28;20507;-77
2020/12/07 03:26:43;;;;;;;15.02;9.13;;;10.30;71.20;;;;;;5038696;28;20064;-77
2020/12/07 03:29:09;;;;;;;12.95;8.70;;;10.20;71.30;;;;;;5050085;28;20036;-75
2020/12/07 03:31:37;;;;;;;14.13;8.57;;;10.30;71.30;;;;;;5038926;28;20024;-76
2020/12/07 03:34:04;;;;;;;13.00;9.27;;;10.30;71.00;;;;;;5044357;28;20024;-76
2020/12/07 03:36:30;;;;;;;13.40;8.85;;;10.40;70.80;;;;;;5028396;28;20208;-76
2020/12/07 03:38:55;;;;;;;12.98;8.82;;;10.30;71.10;;;;;;5036977;28;20488;-78
2020/12/07 03:41:21;;;;;;;12.45;8.85;;;10.30;71.10;;;;;;5049730;28;20029;-77
2020/12/07 03:43:48;;;;;;;13.80;9.32;;;10.30;71.20;;;;;;5040463;28;20016;-77
2020/12/07 03:46:14;;;;;;;13.15;8.50;;;10.30;71.10;;;;;;5042574;28;20065;-76
2020/12/07 03:48:40;;;;;;;15.70;10.05;;;10.30;71.10;;;;;;5047276;28;20064;-76
2020/12/07 03:51:06;;;;;;;16.23;10.20;;;10.30;71.10;;;;;;5036576;28;20111;-76
2020/12/07 03:53:34;;;;;;;12.50;9.52;;;10.20;71.40;;;;;;5048310;28;20472;-76
2020/12/07 03:56:00;;;;;;;12.77;8.27;;;10.20;71.50;;;;;;5041716;28;20070;-77
2020/12/07 03:58:26;;;;;;;14.43;9.68;;;10.20;71.30;;;;;;5040656;28;20536;-77
2020/12/07 04:00:51;;;;;;;14.25;9.00;;;10.30;71.10;;;;;;5024157;28;20160;-77
2020/12/07 04:03:17;;;;;;;12.68;8.82;;;10.30;71.30;;;;;;5049484;28;20030;-77
2020/12/07 04:05:46;;;;;;;12.35;9.02;;;10.20;71.30;;;;;;5021432;28;20029;-76
2020/12/07 04:08:11;;;;;;;14.43;9.73;;;10.30;71.00;;;;;;5024627;28;20381;-77
2020/12/07 04:10:40;;;;;;;12.77;9.00;;;10.30;71.20;;;;;;5028553;28;20032;-77
2020/12/07 04:13:07;;;;;;;14.77;9.43;;;10.20;71.40;;;;;;5036233;28;20025;-77
2020/12/07 04:15:33;;;;;;;14.00;9.73;;;10.30;71.40;;;;;;5029974;28;20439;-77
2020/12/07 04:17:59;;;;;;;15.77;10.63;;;10.30;71.40;;;;;;5041270;28;20117;-77
2020/12/07 04:20:25;;;;;;;16.33;10.00;;;10.30;70.90;;;;;;5040118;28;20508;-77
2020/12/07 04:22:51;;;;;;;14.18;9.82;;;10.30;71.40;;;;;;5014870;28;20029;-78
2020/12/07 04:25:17;;;;;;;16.25;10.20;;;10.30;71.10;;;;;;5031114;28;20399;-78
2020/12/07 04:27:43;;;;;;;15.07;10.20;;;10.30;71.20;;;;;;5038802;28;20528;-78
2020/12/07 04:30:08;;;;;;;14.23;11.10;;;10.30;71.10;;;;;;5042584;28;20030;-78
2020/12/07 04:32:34;;;;;;;14.63;10.38;;;10.30;71.20;;;;;;5045627;28;20021;-78
2020/12/07 04:35:00;;;;;;;15.43;10.50;;;10.30;71.20;;;;;;5035886;28;20120;-78
2020/12/07 04:37:26;;;;;;;14.80;10.73;;;10.30;71.20;;;;;;5030350;28;20395;-76
2020/12/07 04:39:52;;;;;;;14.27;9.60;;;10.30;71.70;;;;;;5040953;28;20024;-77
2020/12/07 04:42:19;;;;;;;14.75;10.68;;;10.30;71.50;;;;;;5041177;28;20033;-76
2020/12/07 04:44:44;;;;;;;16.67;12.00;;;10.30;71.60;;;;;;5029390;28;20019;-77
2020/12/07 04:47:18;;;;;;;19.75;11.52;;;10.20;72.10;;;;;;5035492;28;20138;-75
2020/12/07 04:49:44;;;;;;;15.63;10.88;;;10.20;72.10;;;;;;5045878;28;20025;-77
2020/12/07 04:52:10;;;;;;;14.98;11.82;;;10.10;72.20;;;;;;5042233;28;20035;-78
2020/12/07 04:54:41;;;;;;;14.23;10.70;;;10.20;72.50;;;;;;5038283;28;20025;-78
2020/12/07 04:57:08;;;;;;;;;;;10.10;72.60;;;;;;5049056;28;20025;-75
2020/12/07 04:59:34;;;;;;;13.48;10.15;;;10.10;73.00;;;;;;5037217;28;20439;-75
2020/12/07 05:02:01;;;;;;;15.57;11.57;;;10.10;72.60;;;;;;5044544;28;20049;-75
2020/12/07 05:04:27;;;;;;;15.52;10.90;;;10.10;73.20;;;;;;5021135;28;20037;-76
2020/12/07 05:07:12;;;;;;;16.23;11.38;;;10.10;73.00;;;;;;5047913;28;20042;-77
2020/12/07 05:09:38;;;;;;;15.02;10.80;;;10.10;72.80;;;;;;5037745;28;20057;-75
2020/12/07 05:12:16;;;;;;;16.48;10.73;;;10.10;72.60;;;;;;5024791;28;20025;-76
2020/12/07 05:14:42;;;;;;;15.43;10.40;;;10.10;72.60;;;;;;5046230;28;20126;-75
2020/12/07 05:17:08;;;;;;;15.20;11.57;;;10.10;72.40;;;;;;5017423;28;20118;-75
2020/12/07 05:19:33;;;;;;;18.80;12.23;;;10.20;72.50;;;;;;5028576;28;20111;-75
2020/12/07 05:21:59;;;;;;;19.65;12.05;;;10.10;73.00;;;;;;5031880;28;20029;-75
2020/12/07 05:24:25;;;;;;;20.80;12.43;;;10.10;72.60;;;;;;5043917;28;20021;-75
2020/12/07 05:26:52;;;;;;;15.80;12.15;;;10.10;72.50;;;;;;5018156;28;20040;-75
2020/12/07 05:29:31;;;;;;;19.45;11.68;;;10.10;72.20;;;;;;5030218;28;20045;-75
2020/12/07 05:31:58;;;;;;;15.38;11.68;;;10.10;72.60;;;;;;5022291;28;20017;-76
2020/12/07 05:34:25;;;;;;;17.98;11.82;;;10.10;72.50;;;;;;5039795;28;20080;-75
2020/12/07 05:36:55;;;;;;;15.68;11.98;;;10.10;72.60;;;;;;5029374;28;20033;-75
2020/12/07 05:39:24;;;;;;;17.15;11.55;;;10.10;72.60;;;;;;5017110;28;20021;-74
2020/12/07 05:41:50;;;;;;;16.95;11.32;;;10.20;72.90;;;;;;5026482;28;20017;-76
2020/12/07 05:44:17;;;;;;;16.42;11.98;;;10.20;72.50;;;;;;5024536;28;20522;-75
2020/12/07 05:46:46;;;;;;;16.27;11.85;;;10.10;72.70;;;;;;5018942;28;20037;-75
2020/12/07 05:49:15;;;;;;;18.58;12.20;;;10.10;72.80;;;;;;5029950;28;20063;-75
2020/12/07 05:51:46;;;;;;;20.00;12.50;;;10.00;72.80;;;;;;5020012;28;20464;-75
2020/12/07 05:54:13;;;;;;;18.20;12.73;;;10.00;73.00;;;;;;5041217;28;20032;-76
2020/12/07 05:56:43;;;;;;;20.15;12.00;;;10.00;72.90;;;;;;5027407;28;20056;-76
2020/12/07 05:59:15;;;;;;;15.32;11.85;;;10.00;72.60;;;;;;5016895;28;20044;-76
2020/12/07 06:01:47;;;;;;;18.40;12.65;;;10.10;72.80;;;;;;5026116;28;20075;-76
2020/12/07 06:04:13;;;;;;;17.30;12.80;;;10.00;72.80;;;;;;5022869;28;20034;-75
2020/12/07 06:06:42;;;;;;;17.05;12.15;;;10.00;73.10;;;;;;5027468;28;20033;-76
2020/12/07 06:09:14;;;;;;;15.35;12.50;;;10.00;72.90;;;;;;5016616;28;20033;-76
2020/12/07 06:11:53;;;;;;;17.63;13.07;;;10.00;73.10;;;;;;5027258;28;20025;-77
2020/12/07 06:14:20;;;;;;;17.17;12.48;;;10.00;73.20;;;;;;5024363;28;20021;-77
2020/12/07 06:16:49;;;;;;;17.48;12.43;;;10.00;73.00;;;;;;5020755;28;20091;-77
2020/12/07 06:19:16;;;;;;;15.85;13.00;;;10.00;73.10;;;;;;5032862;28;20021;-76
2020/12/07 06:21:56;;;;;;;17.65;12.77;;;10.00;73.00;;;;;;5016229;28;20037;-76
2020/12/07 06:24:22;;;;;;;18.50;12.80;;;10.00;73.10;;;;;;5028362;28;20024;-77
2020/12/07 06:27:02;;;;;;;18.77;13.95;;;10.00;73.30;;;;;;5038871;28;20037;-76
2020/12/07 06:29:28;;;;;;;18.48;13.57;;;9.90;73.20;;;;;;5020669;28;20048;-76
2020/12/07 06:31:57;;;;;;;19.85;13.23;;;9.90;73.70;;;;;;5054359;28;20020;-77
2020/12/07 06:34:23;;;;;;;18.45;14.38;;;9.90;73.60;;;;;;5024273;28;20048;-77
2020/12/07 06:36:49;;;;;;;20.70;14.02;;;9.80;73.60;;;;;;5031447;28;20079;-76
2020/12/07 06:39:15;;;;;;;18.95;14.02;;;9.80;73.70;;;;;;5018229;28;20021;-78
2020/12/07 06:41:48;;;;;;;18.52;13.10;;;9.90;73.80;;;;;;5040205;28;20024;-76
2020/12/07 06:44:18;;;;;;;20.55;13.80;;;9.90;74.00;;;;;;5043432;28;20067;-76
2020/12/07 06:47:12;;;;;;;16.95;12.90;;;9.90;73.50;;;;;;5013868;28;20124;-76
2020/12/07 06:49:58;;;;;;;18.58;13.73;;;9.80;73.60;;;;;;5040112;28;20033;-77
2020/12/07 06:52:26;;;;;;;20.48;14.43;;;9.80;74.30;;;;;;5042111;28;20049;-77
2020/12/07 06:55:03;;;;;;;19.95;14.27;;;9.80;74.20;;;;;;5044113;28;20048;-79
2020/12/07 06:57:50;;;;;;;22.92;14.82;;;9.80;74.40;;;;;;5046100;28;20040;-79
2020/12/07 07:00:24;;;;;;;18.02;14.55;;;9.80;74.00;;;;;;5046600;28;20625;-80
2020/12/07 07:02:52;;;;;;;20.15;14.32;;;9.80;74.20;;;;;;5031441;28;20028;-80
2020/12/07 07:05:26;;;;;;;21.00;14.57;;;9.70;74.60;;;;;;5037245;28;20442;-77
2020/12/07 07:07:52;;;;;;;18.70;13.82;;;9.80;74.80;;;;;;5046394;28;20025;-78
2020/12/07 07:10:18;;;;;;;24.13;15.05;;;9.80;74.20;;;;;;5027243;28;20379;-79
2020/12/07 07:12:46;;;;;;;20.08;14.52;;;9.70;74.30;;;;;;5021183;28;20026;-80
2020/12/07 07:15:13;;;;;;;21.60;13.95;;;9.70;74.40;;;;;;5032059;28;20476;-80
2020/12/07 07:17:43;;;;;;;20.70;15.07;;;9.80;74.40;;;;;;5021472;28;20016;-78
2020/12/07 07:20:10;;;;;;;22.42;14.85;;;9.70;74.80;;;;;;5043596;28;20052;-75
2020/12/07 07:22:40;;;;;;;20.50;15.27;;;9.70;74.60;;;;;;5015102;28;20040;-80
2020/12/07 07:30:20;;;;;;;21.33;16.27;;;9.70;74.80;;;;;;5041543;28;20075;-78
2020/12/07 07:32:47;;;;;;;20.25;14.45;;;9.70;75.00;;;;;;5030094;28;20123;-78
2020/12/07 07:35:15;;;;;;;18.55;14.70;;;9.80;74.40;;;;;;5018713;28;20025;-78
2020/12/07 07:37:41;;;;;;;23.58;15.07;;;9.80;75.00;;;;;;5047065;28;20094;-77
2020/12/07 07:40:16;;;;;;;20.00;15.68;;;9.80;74.50;;;;;;5042887;28;20032;-78
2020/12/07 07:42:56;;;;;;;21.77;14.88;;;9.80;74.60;;;;;;5038524;28;20030;-78
2020/12/07 07:45:28;;;;;;;21.25;15.00;;;9.80;74.30;;;;;;5049511;28;20495;-77
2020/12/07 07:48:05;;;;;;;19.88;14.60;;;9.70;74.60;;;;;;5033000;28;20116;-80
2020/12/07 08:06:17;;;;;;;65.78;33.88;;;9.60;74.70;;;;;;5035842;28;20044;-78
2020/12/07 08:15:53;;;;;;;27.95;18.42;;;9.60;75.30;;;;;;5037667;28;20082;-80
2020/12/07 08:18:37;;;;;;;26.38;15.02;;;9.60;75.30;;;;;;5043942;28;20081;-83
2020/12/07 08:21:04;;;;;;;20.85;14.23;;;9.60;75.40;;;;;;5046915;28;20068;-84
2020/12/07 08:23:34;;;;;;;32.88;21.15;;;9.60;75.40;;;;;;5050648;28;20443;-81
2020/12/07 08:26:01;;;;;;;18.40;14.20;;;9.60;75.70;;;;;;5038243;28;20087;-80
2020/12/07 08:28:28;;;;;;;21.67;15.70;;;9.60;75.70;;;;;;5042797;28;20048;-80
2020/12/07 08:31:14;;;;;;;25.25;15.85;;;9.50;75.90;;;;;;5045587;28;20021;-80
2020/12/07 08:34:03;;;;;;;28.02;18.45;;;9.50;76.00;;;;;;5016292;28;20025;-79
2020/12/07 08:36:31;;;;;;;51.17;30.10;;;9.60;76.40;;;;;;5028911;28;20067;-74
2020/12/07 08:38:57;;;;;;;19.75;14.40;;;9.60;76.60;;;;;;5019806;28;20021;-73
2020/12/07 08:41:27;;;;;;;26.17;18.67;;;9.60;75.80;;;;;;5017431;28;20071;-74
2020/12/07 08:44:04;;;;;;;27.55;18.80;;;9.60;75.90;;;;;;5019487;28;20113;-79
2020/12/07 08:46:32;;;;;;;43.67;24.63;;;9.60;75.80;;;;;;5035056;28;20056;-75
2020/12/07 08:49:00;;;;;;;33.53;21.20;;;9.60;76.20;;;;;;5046153;28;20021;-76
2020/12/07 08:51:28;;;;;;;20.23;14.82;;;9.60;76.50;;;;;;5035885;28;20557;-75
2020/12/07 08:53:55;;;;;;;22.42;15.15;;;9.60;76.10;;;;;;5052035;28;20025;-78
2020/12/07 08:56:20;;;;;;;18.30;13.60;;;9.60;76.20;;;;;;5043154;28;20021;-85
2020/12/07 08:58:47;;;;;;;18.30;14.55;;;9.60;76.10;;;;;;5026807;28;20146;-77
2020/12/07 09:01:13;;;;;;;19.10;14.18;;;9.50;76.20;;;;;;5018117;28;20030;-77
2020/12/07 09:03:43;;;;;;;18.52;14.35;;;9.60;76.20;;;;;;5023288;28;20029;-76
2020/12/07 09:06:12;;;;;;;30.40;20.43;;;9.60;76.20;;;;;;5021440;28;20087;-76
2020/12/07 09:08:37;;;;;;;18.42;14.60;;;9.60;76.50;;;;;;5026588;28;20025;-75
2020/12/07 09:11:07;;;;;;;20.25;14.40;;;9.60;76.00;;;;;;5025729;28;20040;-79
2020/12/07 09:13:34;;;;;;;20.67;15.15;;;9.60;75.90;;;;;;5032333;28;20095;-82
2020/12/07 09:16:01;;;;;;;17.45;13.65;;;9.60;76.00;;;;;;5024621;28;20033;-81
2020/12/07 09:18:27;;;;;;;32.08;19.90;;;9.60;76.00;;;;;;5017685;28;20079;-77
2020/12/07 09:20:53;;;;;;;19.98;15.10;;;9.60;76.30;;;;;;5063791;23;20076;-79
2020/12/07 09:23:19;;;;;;;21.75;15.60;;;9.50;75.80;;;;;;5056366;28;20123;-77
2020/12/07 09:25:45;;;;;;;20.67;14.55;;;9.50;76.20;;;;;;5057602;28;20052;-78
2020/12/07 09:28:11;;;;;;;16.25;13.50;;;9.50;76.20;;;;;;5060674;28;20064;-77
2020/12/07 09:30:37;;;;;;;20.40;14.25;;;9.60;76.30;;;;;;5082642;28;20097;-76
2020/12/07 09:33:03;;;;;;;19.38;14.75;;;9.60;75.90;;;;;;5077023;28;20040;-79
2020/12/07 09:35:29;;;;;;;24.42;17.40;;;9.60;76.20;;;;;;5087810;28;20035;-76
2020/12/07 09:37:54;;;;;;;25.58;16.38;;;9.70;76.00;;;;;;5076844;28;20344;-79
2020/12/07 09:40:20;;;;;;;19.83;13.80;;;9.70;75.70;;;;;;5082956;28;20399;-76
2020/12/07 09:42:46;;;;;;;25.70;16.50;;;9.70;75.70;;;;;;5083708;28;20379;-78
2020/12/07 09:45:11;;;;;;;19.27;14.43;;;9.70;76.00;;;;;;5075785;28;20032;-77
2020/12/07 09:47:38;;;;;;;26.27;18.08;;;9.70;75.40;;;;;;5088067;28;20041;-79
2020/12/07 09:50:06;;;;;;;30.80;20.05;;;9.60;75.90;;;;;;5079819;28;20017;-78
2020/12/07 09:52:32;;;;;;;25.38;17.13;;;9.60;76.50;;;;;;5067058;28;20027;-78
2020/12/07 09:54:57;;;;;;;23.83;16.98;;;9.60;76.00;;;;;;5089268;28;20016;-78
2020/12/07 09:57:23;;;;;;;21.17;14.85;;;9.70;76.10;;;;;;5078298;28;20039;-78
2020/12/07 09:59:50;;;;;;;23.35;16.45;;;9.70;75.80;;;;;;5090954;28;20094;-78
2020/12/07 10:02:19;;;;;;;22.00;15.27;;;9.60;75.90;;;;;;5083379;28;20063;-74
2020/12/07 10:04:45;;;;;;;23.95;15.15;;;9.60;75.80;;;;;;5082784;28;20025;-74
2020/12/07 10:07:12;;;;;;;21.88;16.20;;;9.60;75.80;;;;;;5072501;28;20414;-75
2020/12/07 10:09:37;;;;;;;53.92;31.67;;;9.60;76.10;;;;;;5061879;28;20371;-77
2020/12/07 10:12:04;;;;;;;23.75;16.23;;;9.50;76.20;;;;;;5088425;28;20028;-78
2020/12/07 10:14:29;;;;;;;20.45;15.20;;;9.50;76.20;;;;;;5084908;28;20073;-77
2020/12/07 10:16:56;;;;;;;17.52;14.25;;;9.50;76.40;;;;;;5080796;28;20032;-77
2020/12/07 10:19:22;;;;;;;21.73;14.88;;;9.50;76.50;;;;;;5090865;28;20044;-77
2020/12/07 10:21:47;;;;;;;24.40;16.23;;;9.50;76.60;;;;;;5060902;28;20031;-78
2020/12/07 10:24:13;;;;;;;25.88;17.95;;;9.50;76.80;;;;;;5068733;28;20024;-79
2020/12/07 10:26:39;;;;;;;22.55;15.98;;;9.50;77.00;;;;;;5085905;28;20075;-76
2020/12/07 10:29:05;;;;;;;19.05;14.95;;;9.50;76.90;;;;;;5061730;28;20410;-77
2020/12/07 10:31:30;;;;;;;116.07;57.95;;;9.60;76.90;;;;;;5091254;28;20064;-79
2020/12/07 10:33:56;;;;;;;153.98;72.90;;;9.70;77.50;;;;;;5079819;28;20020;-80
2020/12/07 10:36:24;;;;;;;40.78;23.33;;;9.80;77.30;;;;;;5067265;28;20029;-77
2020/12/07 10:38:51;;;;;;;56.92;30.45;;;9.90;75.60;;;;;;5087296;28;20111;-80
2020/12/07 10:41:17;;;;;;;39.13;22.23;;;9.90;75.60;;;;;;5077727;28;20132;-76
2020/12/07 10:43:43;;;;;;;52.00;28.75;;;9.90;75.00;;;;;;5077692;28;20044;-75
2020/12/07 10:46:13;;;;;;;64.85;32.92;;;9.80;74.90;;;;;;5076015;28;20035;-80
2020/12/07 10:48:39;;;;;;;77.07;39.40;;;9.90;75.30;;;;;;5065038;28;20027;-84
2020/12/07 10:51:05;;;;;;;18.02;12.40;;;10.00;75.30;;;;;;5071023;28;20107;-79
2020/12/07 10:53:31;;;;;;;43.05;23.15;;;10.00;73.80;;;;;;5077500;28;20044;-79
2020/12/07 10:55:56;;;;;;;20.65;13.73;;;10.00;74.20;;;;;;5070686;28;20028;-80
2020/12/07 10:58:22;;;;;;;59.28;31.13;;;10.00;73.30;;;;;;5065029;28;20028;-80
2020/12/07 11:00:51;;;;;;;45.35;26.77;;;10.00;74.40;;;;;;5080472;28;20108;-79
2020/12/07 11:03:16;;;;;;;52.60;31.60;;;9.90;73.20;;;;;;5090901;28;20030;-79
2020/12/07 11:05:42;;;;;;;55.80;33.97;;;9.80;73.60;;;;;;5076116;28;20047;-81
2020/12/07 11:10:54;;;;;;;21.10;13.32;;;9.90;72.10;;;;;;5089639;28;20074;-78
2020/12/07 11:13:32;;;;;;;25.25;16.17;;;9.90;71.60;;;;;;5077168;28;20029;-79
2020/12/07 11:16:04;;;;;;;44.33;27.20;;;9.90;71.20;;;;;;5088330;28;20051;-80
2020/12/07 11:18:35;;;;;;;69.97;38.58;;;9.80;71.40;;;;;;5083766;28;20024;-78
2020/12/07 11:21:14;;;;;;;38.67;23.45;;;9.90;72.10;;;;;;5060862;28;20223;-80
2020/12/07 11:23:46;;;;;;;17.88;11.13;;;9.90;71.30;;;;;;5090135;28;20027;-84
2020/12/07 11:26:16;;;;;;;21.70;14.05;;;9.80;70.30;;;;;;5081009;28;20040;-80
2020/12/07 11:28:42;;;;;;;11.30;7.85;;;9.60;70.80;;;;;;5067200;28;20028;-80
2020/12/07 11:31:13;;;;;;;11.48;7.57;;;9.60;70.40;;;;;;5070470;28;20031;-75
2020/12/07 11:33:42;;;;;;;12.82;9.05;;;9.50;70.30;;;;;;5058661;28;20099;-84
2020/12/07 11:36:08;;;;;;;10.48;7.57;;;9.50;70.80;;;;;;5067886;28;20035;-83
2020/12/07 11:38:38;;;;;;;9.65;7.22;;;9.60;70.40;;;;;;5065893;28;20436;-83
2020/12/07 11:46:46;;;;;;;12.15;8.18;;;9.80;69.50;;;;;;5082049;28;20094;-74
2020/12/07 11:49:12;;;;;;;12.15;6.25;;;9.80;69.70;;;;;;5069876;28;20031;-75
2020/12/07 11:51:43;;;;;;;33.70;20.05;;;9.90;69.50;;;;;;5057786;28;20028;-75
2020/12/07 11:54:09;;;;;;;;;;;10.00;69.40;;;;;;5066628;28;20027;-73
2020/12/07 11:56:36;;;;;;;7.03;5.03;;;10.10;68.80;;;;;;5064228;28;20270;-75
2020/12/07 11:59:03;;;;;;;14.10;8.25;;;10.10;68.40;;;;;;5058831;28;20031;-74
2020/12/07 12:01:33;;;;;;;7.40;5.40;;;9.90;68.70;;;;;;5069807;28;20050;-74
2020/12/07 12:04:03;;;;;;;6.57;5.35;;;9.90;68.00;;;;;;5059195;28;20110;-73
2020/12/07 12:06:32;;;;;;;9.15;4.97;;;9.90;68.40;;;;;;5081210;28;20027;-74
2020/12/07 12:08:59;;;;;;;14.02;5.15;;;9.90;68.00;;;;;;5085342;28;20059;-74
2020/12/07 12:11:30;;;;;;;8.60;5.13;;;10.00;67.30;;;;;;5088347;28;20016;-73
2020/12/07 12:13:56;;;;;;;17.92;5.55;;;10.10;67.50;;;;;;5057363;28;20015;-74
2020/12/07 12:16:24;;;;;;;10.13;4.93;;;10.30;65.80;;;;;;5082252;28;20031;-75
2020/12/07 12:18:51;;;;;;;6.38;4.32;;;10.30;65.60;;;;;;5084107;28;20042;-73
2020/12/07 12:21:19;;;;;;;6.85;4.82;;;10.40;65.30;;;;;;5074312;28;20501;-75
2020/12/07 12:23:45;;;;;;;9.38;4.97;;;10.50;65.00;;;;;;5076143;28;20016;-77
2020/12/07 12:26:12;;;;;;;9.00;4.80;;;10.50;64.70;;;;;;5084793;28;20117;-78
2020/12/07 12:28:38;;;;;;;5.55;4.07;;;10.50;64.40;;;;;;5065501;28;20032;-75
2020/12/07 12:31:04;;;;;;;9.50;4.40;;;10.50;64.60;;;;;;5059101;28;20075;-78
2020/12/07 12:33:30;;;;;;;4.97;4.05;;;10.60;64.40;;;;;;5088776;28;20377;-78
2020/12/07 12:35:56;;;;;;;5.25;4.22;;;10.80;63.60;;;;;;5077266;28;20012;-79
2020/12/07 12:38:22;;;;;;;7.72;4.55;;;11.00;62.30;;;;;;5067424;28;20069;-77
2020/12/07 12:40:47;;;;;;;139.57;64.05;;;11.20;61.70;;;;;;5079104;28;20032;-79
2020/12/07 12:43:13;;;;;;;233.68;103.57;;;11.30;61.90;;;;;;5071805;28;20029;-80
2020/12/07 12:45:39;;;;;;;97.20;42.78;;;11.40;61.30;;;;;;5088752;28;20032;-83
2020/12/07 12:48:04;;;;;;;48.63;22.55;;;11.50;59.10;;;;;;5060236;28;20612;-78
2020/12/07 12:50:30;;;;;;;24.58;10.70;;;11.50;58.00;;;;;;5082035;28;20459;-79
2020/12/07 12:52:55;;;;;;;38.55;18.80;;;11.50;56.30;;;;;;5085499;28;20038;-82
2020/12/07 12:55:21;;;;;;;47.40;21.95;;;11.50;57.10;;;;;;5075184;28;20383;-84
2020/12/07 12:57:47;;;;;;;55.70;26.08;;;11.40;58.30;;;;;;5069779;28;20040;-82
2020/12/07 13:00:13;;;;;;;13.23;7.35;;;11.40;58.10;;;;;;5079692;28;20031;-83
2020/12/07 13:02:38;;;;;;;44.67;20.10;;;11.30;56.70;;;;;;5080743;28;20028;-84
2020/12/07 13:05:04;;;;;;;58.67;28.75;;;11.20;58.30;;;;;;5086746;28;20062;-83
2020/12/07 13:07:29;;;;;;;14.25;7.70;;;11.00;58.10;;;;;;5057081;28;20498;-82
2020/12/07 13:09:55;;;;;;;36.28;17.20;;;11.00;57.90;;;;;;5089755;28;20441;-81
2020/12/07 13:12:21;;;;;;;35.35;17.80;;;10.90;58.40;;;;;;5065027;28;20522;-79
2020/12/07 13:14:46;;;;;;;15.40;8.52;;;10.70;58.70;;;;;;5066045;28;20387;-80